CES5406 ZUUU-ZSSS
Flight info
| Callsign | CES5406 |
|---|---|
| Flight time | 2h 13m |
| Altitude | 35100 |
| Route | K0926S1070 UBRAB9Z UBRAB B213 WHA R343 PK DCT |
| Aircraft | A359/H-SDE2E3GHIJ3J4J5LM1ORWXY/LB1D1 |
Departure
| Time | 2026-05-04 07:04 |
|---|---|
| Airport | Chengdu Shuangliu International Airport (ZUUU) |
Arrival
| Time | 2026-05-04 09:17 |
|---|---|
| Airport | Shanghai Hongqiao International Airport (ZSSS) |
| Time | Latitude | Longitude | Altitude | Speed | Heading |
|---|---|---|---|---|---|
| 2026-05-04 06:35 | 30.58396 | 103.95590 | 1653 ft | 0 kts | 22° |
| 2026-05-04 06:48 | 30.58367 | 103.95577 | 1653 ft | 1 kts | 22° |
| 2026-05-04 06:48 | 30.58355 | 103.95572 | 1653 ft | 2 kts | 8° |
| 2026-05-04 06:49 | 30.58343 | 103.95572 | 1653 ft | 2 kts | 352° |
| 2026-05-04 06:50 | 30.58312 | 103.95592 | 1653 ft | 0 kts | 304° |
| 2026-05-04 06:55 | 30.58313 | 103.95590 | 1653 ft | 0 kts | 304° |
| 2026-05-04 06:57 | 30.58457 | 103.95301 | 1653 ft | 9 kts | 353° |
| 2026-05-04 06:58 | 30.58525 | 103.95317 | 1653 ft | 11 kts | 17° |
| 2026-05-04 06:58 | 30.58601 | 103.95347 | 1653 ft | 12 kts | 19° |
| 2026-05-04 06:58 | 30.58681 | 103.95346 | 1653 ft | 12 kts | 334° |
| 2026-05-04 06:58 | 30.58763 | 103.95342 | 1654 ft | 12 kts | 15° |
| 2026-05-04 06:59 | 30.58832 | 103.95368 | 1668 ft | 11 kts | 20° |
| 2026-05-04 06:59 | 30.58908 | 103.95402 | 1667 ft | 12 kts | 21° |
| 2026-05-04 06:59 | 30.58966 | 103.95428 | 1667 ft | 8 kts | 21° |
| 2026-05-04 06:59 | 30.59002 | 103.95445 | 1667 ft | 6 kts | 21° |
| 2026-05-04 07:01 | 30.59292 | 103.95520 | 1653 ft | 0 kts | 292° |
| 2026-05-04 07:02 | 30.59293 | 103.95518 | 1653 ft | 1 kts | 292° |
| 2026-05-04 07:02 | 30.59297 | 103.95507 | 1653 ft | 3 kts | 292° |
| 2026-05-04 07:02 | 30.59310 | 103.95470 | 1653 ft | 6 kts | 292° |
| 2026-05-04 07:02 | 30.59329 | 103.95414 | 1653 ft | 8 kts | 285° |
| 2026-05-04 07:03 | 30.59306 | 103.95379 | 1653 ft | 5 kts | 207° |
| 2026-05-04 07:03 | 30.59300 | 103.95376 | 1654 ft | 0 kts | 204° |
| 2026-05-04 07:03 | 30.59266 | 103.95358 | 1668 ft | 27 kts | 204° |
| 2026-05-04 07:03 | 30.58867 | 103.95174 | 1661 ft | 95 kts | 200° |
| 2026-05-04 07:04 | 30.58061 | 103.94824 | 1664 ft | 151 kts | 199° |
| 2026-05-04 07:04 | 30.56981 | 103.94337 | 1985 ft | 169 kts | 207° |
| 2026-05-04 07:04 | 30.56207 | 103.93405 | 2855 ft | 161 kts | 238° |
| 2026-05-04 07:04 | 30.55987 | 103.92091 | 3118 ft | 180 kts | 275° |
| 2026-05-04 07:05 | 30.56626 | 103.90731 | 3122 ft | 215 kts | 318° |
| 2026-05-04 07:05 | 30.58112 | 103.89930 | 2801 ft | 259 kts | 346° |
| 2026-05-04 07:05 | 30.59983 | 103.89493 | 2726 ft | 287 kts | 351° |
| 2026-05-04 07:05 | 30.62031 | 103.89280 | 3151 ft | 301 kts | 1° |
| 2026-05-04 07:06 | 30.65932 | 103.90418 | 5192 ft | 280 kts | 28° |
| 2026-05-04 07:06 | 30.67589 | 103.91613 | 5972 ft | 279 kts | 35° |
| 2026-05-04 07:06 | 30.69167 | 103.92909 | 6662 ft | 283 kts | 36° |
| 2026-05-04 07:07 | 30.70780 | 103.94256 | 7281 ft | 286 kts | 36° |
| 2026-05-04 07:08 | 30.82770 | 104.04033 | 10951 ft | 333 kts | 33° |
| 2026-05-04 07:09 | 30.84703 | 104.05600 | 11190 ft | 346 kts | 34° |
| 2026-05-04 07:09 | 30.86522 | 104.07493 | 11446 ft | 359 kts | 50° |
| 2026-05-04 07:09 | 30.87708 | 104.10085 | 11783 ft | 370 kts | 72° |
| 2026-05-04 07:09 | 30.88035 | 104.13090 | 12011 ft | 379 kts | 89° |
| 2026-05-04 07:10 | 30.87951 | 104.16169 | 12039 ft | 381 kts | 92° |
| 2026-05-04 07:10 | 30.87822 | 104.19212 | 12072 ft | 382 kts | 92° |
| 2026-05-04 07:12 | 30.87108 | 104.41129 | 15106 ft | 395 kts | 90° |
| 2026-05-04 07:12 | 30.87029 | 104.44336 | 15520 ft | 398 kts | 90° |
| 2026-05-04 07:12 | 30.86953 | 104.47569 | 15936 ft | 401 kts | 90° |
| 2026-05-04 07:12 | 30.86874 | 104.50826 | 16334 ft | 404 kts | 90° |
| 2026-05-04 07:13 | 30.86796 | 104.54101 | 16747 ft | 407 kts | 90° |
| 2026-05-04 07:13 | 30.86713 | 104.57401 | 17189 ft | 410 kts | 90° |
| 2026-05-04 07:13 | 30.86632 | 104.60731 | 17605 ft | 412 kts | 90° |
| 2026-05-04 07:14 | 30.86281 | 104.74230 | 19061 ft | 424 kts | 90° |
| 2026-05-04 07:14 | 30.86188 | 104.77711 | 19409 ft | 427 kts | 90° |
| 2026-05-04 07:15 | 30.86096 | 104.81133 | 19750 ft | 429 kts | 90° |
| 2026-05-04 07:15 | 30.86001 | 104.84618 | 20073 ft | 432 kts | 90° |
| 2026-05-04 07:15 | 30.85904 | 104.88123 | 20417 ft | 434 kts | 90° |
| 2026-05-04 07:15 | 30.85806 | 104.91644 | 20731 ft | 437 kts | 90° |
| 2026-05-04 07:16 | 30.85708 | 104.95195 | 21055 ft | 440 kts | 90° |
| 2026-05-04 07:16 | 30.85608 | 104.98771 | 21406 ft | 442 kts | 90° |
| 2026-05-04 07:16 | 30.85506 | 105.02359 | 21722 ft | 445 kts | 90° |
| 2026-05-04 07:16 | 30.85402 | 105.05966 | 22047 ft | 447 kts | 90° |
| 2026-05-04 07:17 | 30.85295 | 105.09600 | 22374 ft | 450 kts | 90° |
| 2026-05-04 07:17 | 30.85189 | 105.13238 | 22681 ft | 453 kts | 90° |
| 2026-05-04 07:17 | 30.85079 | 105.16921 | 22974 ft | 455 kts | 90° |
| 2026-05-04 07:17 | 30.84968 | 105.20621 | 23306 ft | 457 kts | 90° |
| 2026-05-04 07:18 | 30.84857 | 105.24282 | 23597 ft | 460 kts | 90° |
| 2026-05-04 07:18 | 30.84743 | 105.28025 | 23848 ft | 462 kts | 90° |
| 2026-05-04 07:18 | 30.84629 | 105.31769 | 24082 ft | 465 kts | 90° |
| 2026-05-04 07:18 | 30.84512 | 105.35547 | 24319 ft | 467 kts | 90° |
| 2026-05-04 07:19 | 30.84413 | 105.39336 | 24557 ft | 469 kts | 88° |
| 2026-05-04 07:19 | 30.84631 | 105.43132 | 24780 ft | 469 kts | 78° |
| 2026-05-04 07:19 | 30.85249 | 105.46862 | 25031 ft | 469 kts | 75° |
| 2026-05-04 07:19 | 30.85983 | 105.50507 | 25274 ft | 471 kts | 73° |
| 2026-05-04 07:20 | 30.86799 | 105.54228 | 25510 ft | 473 kts | 72° |
| 2026-05-04 07:20 | 30.87635 | 105.57937 | 25744 ft | 475 kts | 72° |
| 2026-05-04 07:20 | 30.88473 | 105.61672 | 26013 ft | 477 kts | 72° |
| 2026-05-04 07:20 | 30.89299 | 105.65425 | 26258 ft | 480 kts | 73° |
| 2026-05-04 07:22 | 30.94990 | 105.92307 | 28073 ft | 497 kts | 73° |
| 2026-05-04 07:22 | 30.95735 | 105.96198 | 28347 ft | 502 kts | 77° |
| 2026-05-04 07:23 | 30.96076 | 106.00271 | 28609 ft | 507 kts | 87° |
| 2026-05-04 07:23 | 30.95842 | 106.04375 | 28876 ft | 512 kts | 98° |
| 2026-05-04 07:23 | 30.95099 | 106.08449 | 29132 ft | 516 kts | 103° |
| 2026-05-04 07:23 | 30.94195 | 106.12505 | 29389 ft | 519 kts | 104° |
| 2026-05-04 07:24 | 30.93215 | 106.16571 | 29652 ft | 522 kts | 105° |
| 2026-05-04 07:24 | 30.92204 | 106.20646 | 29904 ft | 525 kts | 105° |
| 2026-05-04 07:24 | 30.91187 | 106.24735 | 30142 ft | 528 kts | 105° |
| 2026-05-04 07:24 | 30.90174 | 106.28847 | 30351 ft | 531 kts | 105° |
| 2026-05-04 07:25 | 30.89167 | 106.32989 | 30566 ft | 533 kts | 105° |
| 2026-05-04 07:26 | 30.73144 | 106.56395 | 31988 ft | 544 kts | 141° |
| 2026-05-04 07:27 | 30.70334 | 106.59380 | 32164 ft | 547 kts | 141° |
| 2026-05-04 07:27 | 30.67535 | 106.62373 | 32358 ft | 549 kts | 141° |
| 2026-05-04 07:27 | 30.64716 | 106.65395 | 32518 ft | 551 kts | 141° |
| 2026-05-04 07:27 | 30.61897 | 106.68423 | 32680 ft | 553 kts | 141° |
| 2026-05-04 07:28 | 30.59074 | 106.71467 | 32932 ft | 554 kts | 140° |
| 2026-05-04 07:28 | 30.56254 | 106.74519 | 33174 ft | 554 kts | 140° |
| 2026-05-04 07:28 | 30.53436 | 106.77567 | 33413 ft | 555 kts | 141° |
| 2026-05-04 07:28 | 30.50607 | 106.80624 | 33644 ft | 556 kts | 141° |
| 2026-05-04 07:29 | 30.47771 | 106.83687 | 33888 ft | 557 kts | 141° |
| 2026-05-04 07:29 | 30.44931 | 106.86755 | 34125 ft | 557 kts | 141° |
| 2026-05-04 07:29 | 30.42101 | 106.89808 | 34346 ft | 558 kts | 141° |
| 2026-05-04 07:29 | 30.39245 | 106.92873 | 34575 ft | 559 kts | 141° |
| 2026-05-04 07:30 | 30.36394 | 106.95937 | 34794 ft | 559 kts | 141° |
| 2026-05-04 07:30 | 30.33534 | 106.99005 | 35023 ft | 560 kts | 142° |
| 2026-05-04 07:30 | 30.27758 | 107.04981 | 35149 ft | 559 kts | 143° |
| 2026-05-04 07:31 | 30.21907 | 107.10910 | 35147 ft | 560 kts | 143° |
| 2026-05-04 07:33 | 29.99471 | 107.36069 | 35144 ft | 572 kts | 126° |
| 2026-05-04 07:33 | 29.97573 | 107.40110 | 35146 ft | 576 kts | 115° |
| 2026-05-04 07:33 | 29.96179 | 107.44433 | 35145 ft | 576 kts | 110° |
| 2026-05-04 07:34 | 29.93790 | 107.53267 | 35146 ft | 577 kts | 107° |
| 2026-05-04 07:34 | 29.91586 | 107.62182 | 35144 ft | 578 kts | 104° |
| 2026-05-04 07:35 | 29.90850 | 107.71346 | 35146 ft | 575 kts | 83° |
| 2026-05-04 07:35 | 29.92476 | 107.80298 | 35148 ft | 569 kts | 71° |
| 2026-05-04 07:36 | 29.94702 | 107.89061 | 35150 ft | 568 kts | 69° |
| 2026-05-04 07:38 | 30.03671 | 108.23963 | 35156 ft | 568 kts | 70° |
| 2026-05-04 07:38 | 30.05853 | 108.32714 | 35147 ft | 567 kts | 71° |
| 2026-05-04 07:39 | 30.08036 | 108.41456 | 35158 ft | 567 kts | 71° |
| 2026-05-04 07:39 | 30.10215 | 108.50217 | 35156 ft | 567 kts | 71° |
| 2026-05-04 07:40 | 30.12393 | 108.58976 | 35163 ft | 566 kts | 70° |
| 2026-05-04 07:40 | 30.14839 | 108.67545 | 35148 ft | 564 kts | 67° |
| 2026-05-04 07:41 | 30.17437 | 108.76104 | 35149 ft | 564 kts | 67° |
| 2026-05-04 07:41 | 30.19997 | 108.84690 | 35148 ft | 565 kts | 68° |
| 2026-05-04 07:42 | 30.22508 | 108.93317 | 35141 ft | 565 kts | 68° |
| 2026-05-04 07:42 | 30.24795 | 109.02024 | 35144 ft | 566 kts | 72° |
| 2026-05-04 07:43 | 30.26857 | 109.10804 | 35141 ft | 566 kts | 72° |
| 2026-05-04 07:43 | 30.28934 | 109.19594 | 35145 ft | 567 kts | 72° |
| 2026-05-04 07:44 | 30.31059 | 109.28393 | 35137 ft | 567 kts | 71° |
| 2026-05-04 07:44 | 30.33191 | 109.37122 | 35135 ft | 566 kts | 71° |
| 2026-05-04 07:45 | 30.35344 | 109.45898 | 35129 ft | 566 kts | 71° |
| 2026-05-04 07:45 | 30.37132 | 109.53266 | 35131 ft | 566 kts | 72° |
| 2026-05-04 07:46 | 30.39083 | 109.62112 | 35128 ft | 568 kts | 77° |
| 2026-05-04 07:46 | 30.40495 | 109.71067 | 35130 ft | 569 kts | 78° |
| 2026-05-04 07:47 | 30.41816 | 109.80091 | 35126 ft | 569 kts | 79° |
| 2026-05-04 07:49 | 30.47026 | 110.16247 | 35121 ft | 570 kts | 79° |
| 2026-05-04 07:49 | 30.48327 | 110.25311 | 35125 ft | 569 kts | 79° |
| 2026-05-04 07:50 | 30.49617 | 110.34361 | 35122 ft | 569 kts | 79° |
| 2026-05-04 07:50 | 30.50906 | 110.43449 | 35123 ft | 571 kts | 79° |
| 2026-05-04 07:51 | 30.52188 | 110.52533 | 35118 ft | 570 kts | 79° |
| 2026-05-04 07:51 | 30.53446 | 110.61533 | 35112 ft | 570 kts | 79° |
| 2026-05-04 07:52 | 30.54720 | 110.70620 | 35117 ft | 570 kts | 79° |
| 2026-05-04 07:52 | 30.55983 | 110.79665 | 35110 ft | 569 kts | 79° |
| 2026-05-04 07:54 | 30.60969 | 111.16049 | 35089 ft | 571 kts | 80° |
| 2026-05-04 07:55 | 30.62207 | 111.25166 | 35098 ft | 572 kts | 80° |
| 2026-05-04 07:55 | 30.63449 | 111.34293 | 35088 ft | 572 kts | 80° |
| 2026-05-04 07:56 | 30.64668 | 111.43424 | 35090 ft | 572 kts | 80° |
| 2026-05-04 07:56 | 30.65501 | 111.52608 | 35091 ft | 572 kts | 85° |
| 2026-05-04 07:57 | 30.66008 | 111.61829 | 35090 ft | 573 kts | 86° |
| 2026-05-04 07:57 | 30.66452 | 111.71086 | 35091 ft | 573 kts | 86° |
| 2026-05-04 07:58 | 30.66902 | 111.80342 | 35091 ft | 573 kts | 86° |
| 2026-05-04 07:58 | 30.67365 | 111.89574 | 35091 ft | 573 kts | 86° |
| 2026-05-04 07:59 | 30.67831 | 111.98829 | 35093 ft | 573 kts | 86° |
| 2026-05-04 07:59 | 30.68434 | 112.08005 | 35091 ft | 573 kts | 85° |
| 2026-05-04 08:00 | 30.69113 | 112.17259 | 35095 ft | 574 kts | 85° |
| 2026-05-04 08:02 | 30.71592 | 112.54230 | 35101 ft | 575 kts | 85° |
| 2026-05-04 08:02 | 30.72190 | 112.63503 | 35105 ft | 575 kts | 85° |
| 2026-05-04 08:03 | 30.72780 | 112.72762 | 35100 ft | 575 kts | 85° |
| 2026-05-04 08:03 | 30.73366 | 112.82044 | 35113 ft | 575 kts | 85° |
| 2026-05-04 08:04 | 30.73941 | 112.91277 | 35114 ft | 575 kts | 86° |
| 2026-05-04 08:04 | 30.74513 | 113.00551 | 35111 ft | 575 kts | 86° |
| 2026-05-04 08:05 | 30.75079 | 113.09849 | 35118 ft | 575 kts | 86° |
| 2026-05-04 08:05 | 30.75598 | 113.19128 | 35116 ft | 576 kts | 87° |
| 2026-05-04 08:06 | 30.75848 | 113.28404 | 35115 ft | 576 kts | 89° |
| 2026-05-04 08:06 | 30.76006 | 113.37719 | 35120 ft | 576 kts | 89° |
| 2026-05-04 08:08 | 30.76834 | 113.75035 | 35120 ft | 578 kts | 89° |
| 2026-05-04 08:11 | 30.78029 | 114.17053 | 35120 ft | 579 kts | 83° |
| 2026-05-04 08:11 | 30.80035 | 114.26072 | 35126 ft | 576 kts | 68° |
| 2026-05-04 08:11 | 30.81400 | 114.30440 | 35113 ft | 575 kts | 67° |
| 2026-05-04 08:12 | 30.84264 | 114.39134 | 35120 ft | 575 kts | 66° |
| 2026-05-04 08:12 | 30.87134 | 114.47855 | 35126 ft | 576 kts | 66° |
| 2026-05-04 08:13 | 30.89960 | 114.56516 | 35130 ft | 576 kts | 66° |
| 2026-05-04 08:13 | 30.92794 | 114.65237 | 35133 ft | 576 kts | 66° |
| 2026-05-04 08:14 | 30.95616 | 114.73966 | 35131 ft | 576 kts | 66° |
| 2026-05-04 08:16 | 31.06842 | 115.08931 | 35138 ft | 575 kts | 67° |
| 2026-05-04 08:16 | 31.09626 | 115.17671 | 35145 ft | 574 kts | 67° |
| 2026-05-04 08:17 | 31.12392 | 115.26408 | 35146 ft | 573 kts | 67° |
| 2026-05-04 08:17 | 31.15145 | 115.35077 | 35148 ft | 573 kts | 66° |
| 2026-05-04 08:19 | 31.26431 | 115.69939 | 35150 ft | 573 kts | 67° |
| 2026-05-04 08:20 | 31.29223 | 115.78669 | 35155 ft | 573 kts | 67° |
| 2026-05-04 08:20 | 31.32015 | 115.87418 | 35148 ft | 574 kts | 67° |
| 2026-05-04 08:21 | 31.34827 | 115.96141 | 35144 ft | 573 kts | 66° |
| 2026-05-04 08:21 | 31.37666 | 116.04792 | 35143 ft | 573 kts | 66° |
| 2026-05-04 08:22 | 31.40509 | 116.13522 | 35132 ft | 573 kts | 66° |
| 2026-05-04 08:24 | 31.51779 | 116.48447 | 35120 ft | 572 kts | 66° |
| 2026-05-04 08:24 | 31.54582 | 116.57190 | 35121 ft | 572 kts | 66° |
| 2026-05-04 08:25 | 31.57378 | 116.65940 | 35136 ft | 572 kts | 66° |
| 2026-05-04 08:25 | 31.60160 | 116.74665 | 35121 ft | 572 kts | 67° |
| 2026-05-04 08:27 | 31.71223 | 117.09684 | 35126 ft | 572 kts | 67° |
| 2026-05-04 08:28 | 31.73911 | 117.18427 | 35128 ft | 572 kts | 68° |
| 2026-05-04 08:28 | 31.76483 | 117.27298 | 35128 ft | 574 kts | 74° |
| 2026-05-04 08:29 | 31.77118 | 117.31932 | 35130 ft | 576 kts | 86° |
| 2026-05-04 08:29 | 31.77120 | 117.36642 | 35132 ft | 576 kts | 93° |
| 2026-05-04 08:31 | 31.74554 | 117.72550 | 35140 ft | 577 kts | 96° |
| 2026-05-04 08:33 | 31.71834 | 118.10138 | 35137 ft | 578 kts | 96° |
| 2026-05-04 08:35 | 31.69191 | 118.47753 | 35137 ft | 579 kts | 96° |
| 2026-05-04 08:35 | 31.68511 | 118.57195 | 35141 ft | 579 kts | 97° |
| 2026-05-04 08:37 | 31.66084 | 118.90116 | 35146 ft | 580 kts | 97° |
| 2026-05-04 08:38 | 31.65374 | 118.99533 | 35156 ft | 580 kts | 97° |
| 2026-05-04 08:38 | 31.64692 | 119.08958 | 35156 ft | 580 kts | 96° |
| 2026-05-04 08:40 | 31.63275 | 119.41828 | 31765 ft | 578 kts | 95° |
| 2026-05-04 08:40 | 31.63055 | 119.46553 | 30834 ft | 581 kts | 95° |
| 2026-05-04 08:40 | 31.62824 | 119.51302 | 29889 ft | 583 kts | 96° |
| 2026-05-04 08:41 | 31.62587 | 119.56049 | 29107 ft | 580 kts | 95° |
| 2026-05-04 08:41 | 31.62353 | 119.60737 | 28552 ft | 571 kts | 95° |
| 2026-05-04 08:41 | 31.62122 | 119.65362 | 27966 ft | 564 kts | 95° |
| 2026-05-04 08:41 | 31.61897 | 119.69932 | 27407 ft | 557 kts | 95° |
| 2026-05-04 08:42 | 31.61687 | 119.74433 | 26874 ft | 549 kts | 95° |
| 2026-05-04 08:42 | 31.61484 | 119.78875 | 26354 ft | 542 kts | 94° |
| 2026-05-04 08:42 | 31.61284 | 119.83254 | 25825 ft | 535 kts | 94° |
| 2026-05-04 08:42 | 31.61085 | 119.87590 | 25302 ft | 527 kts | 94° |
| 2026-05-04 08:43 | 31.60886 | 119.91851 | 24795 ft | 520 kts | 94° |
| 2026-05-04 08:43 | 31.60688 | 119.96050 | 24296 ft | 513 kts | 94° |
| 2026-05-04 08:43 | 31.60490 | 120.00209 | 23794 ft | 506 kts | 94° |
| 2026-05-04 08:43 | 31.60296 | 120.04256 | 23200 ft | 499 kts | 94° |
| 2026-05-04 08:44 | 31.60101 | 120.08347 | 22534 ft | 494 kts | 93° |
| 2026-05-04 08:44 | 31.59910 | 120.12325 | 22144 ft | 484 kts | 93° |
| 2026-05-04 08:46 | 31.57034 | 120.38654 | 18117 ft | 448 kts | 108° |
| 2026-05-04 08:46 | 31.56024 | 120.42103 | 18061 ft | 448 kts | 110° |
| 2026-05-04 08:46 | 31.54974 | 120.45553 | 18063 ft | 449 kts | 110° |
| 2026-05-04 08:46 | 31.53921 | 120.48980 | 17706 ft | 442 kts | 110° |
| 2026-05-04 08:47 | 31.52884 | 120.52364 | 16916 ft | 441 kts | 110° |
| 2026-05-04 08:47 | 31.51856 | 120.55735 | 16252 ft | 437 kts | 110° |
| 2026-05-04 08:47 | 31.50844 | 120.59074 | 15611 ft | 432 kts | 109° |
| 2026-05-04 08:47 | 31.49863 | 120.62327 | 15205 ft | 427 kts | 109° |
| 2026-05-04 08:48 | 31.48867 | 120.65639 | 15076 ft | 426 kts | 109° |
| 2026-05-04 08:48 | 31.47893 | 120.68888 | 15055 ft | 427 kts | 109° |
| 2026-05-04 08:48 | 31.46919 | 120.72140 | 14653 ft | 420 kts | 109° |
| 2026-05-04 08:48 | 31.45946 | 120.75364 | 13944 ft | 419 kts | 109° |
| 2026-05-04 08:49 | 31.44978 | 120.78573 | 13220 ft | 415 kts | 109° |
| 2026-05-04 08:50 | 31.39314 | 120.97362 | 12067 ft | 406 kts | 109° |
| 2026-05-04 08:50 | 31.38366 | 121.00483 | 12071 ft | 406 kts | 109° |
| 2026-05-04 08:51 | 31.37422 | 121.03590 | 12071 ft | 406 kts | 109° |
| 2026-05-04 08:51 | 31.36474 | 121.06706 | 12065 ft | 405 kts | 109° |
| 2026-05-04 08:51 | 31.35543 | 121.09762 | 11597 ft | 396 kts | 109° |
| 2026-05-04 08:51 | 31.34618 | 121.12805 | 10951 ft | 394 kts | 109° |
| 2026-05-04 08:52 | 31.33707 | 121.15772 | 10704 ft | 379 kts | 109° |
| 2026-05-04 08:52 | 31.32826 | 121.18606 | 10497 ft | 365 kts | 109° |
| 2026-05-04 08:52 | 31.31970 | 121.21344 | 10311 ft | 351 kts | 109° |
| 2026-05-04 08:52 | 31.31148 | 121.23966 | 10146 ft | 338 kts | 109° |
| 2026-05-04 08:53 | 31.30367 | 121.26470 | 9990 ft | 325 kts | 109° |
| 2026-05-04 08:54 | 31.25880 | 121.42841 | 8079 ft | 293 kts | 105° |
| 2026-05-04 08:55 | 31.25325 | 121.45135 | 8074 ft | 293 kts | 105° |
| 2026-05-04 08:55 | 31.24766 | 121.47422 | 8075 ft | 293 kts | 105° |
| 2026-05-04 08:55 | 31.24203 | 121.49718 | 8077 ft | 293 kts | 105° |
| 2026-05-04 08:55 | 31.23643 | 121.52016 | 8075 ft | 293 kts | 105° |
| 2026-05-04 08:57 | 31.19755 | 121.68021 | 8080 ft | 280 kts | 105° |
| 2026-05-04 09:01 | 31.03523 | 121.72442 | 5601 ft | 223 kts | 255° |
| 2026-05-04 09:01 | 31.03219 | 121.70680 | 5603 ft | 222 kts | 266° |
| 2026-05-04 09:01 | 31.03212 | 121.68892 | 5603 ft | 220 kts | 276° |
| 2026-05-04 09:01 | 31.03499 | 121.67143 | 5610 ft | 219 kts | 287° |
| 2026-05-04 09:02 | 31.04064 | 121.65496 | 5595 ft | 220 kts | 297° |
| 2026-05-04 09:02 | 31.04881 | 121.63991 | 5233 ft | 227 kts | 308° |
| 2026-05-04 09:02 | 31.05969 | 121.62690 | 5088 ft | 220 kts | 319° |
| 2026-05-04 09:02 | 31.07204 | 121.61690 | 4964 ft | 213 kts | 329° |
| 2026-05-04 09:03 | 31.08551 | 121.60984 | 4723 ft | 212 kts | 339° |
| 2026-05-04 09:03 | 31.09982 | 121.60573 | 4436 ft | 213 kts | 349° |
| 2026-05-04 09:03 | 31.11456 | 121.60358 | 4186 ft | 213 kts | 351° |
| 2026-05-04 09:03 | 31.12913 | 121.60085 | 4020 ft | 209 kts | 345° |
| 2026-05-04 09:04 | 31.14287 | 121.59548 | 3997 ft | 209 kts | 334° |
| 2026-05-04 09:04 | 31.15541 | 121.58709 | 4010 ft | 208 kts | 323° |
| 2026-05-04 09:04 | 31.16628 | 121.57601 | 4010 ft | 208 kts | 312° |
| 2026-05-04 09:04 | 31.17513 | 121.56274 | 4004 ft | 207 kts | 302° |
| 2026-05-04 09:05 | 31.18170 | 121.54798 | 4001 ft | 201 kts | 291° |
| 2026-05-04 09:05 | 31.18571 | 121.53263 | 4011 ft | 197 kts | 282° |
| 2026-05-04 09:05 | 31.18752 | 121.51676 | 4001 ft | 195 kts | 274° |
| 2026-05-04 09:05 | 31.18834 | 121.50098 | 4001 ft | 195 kts | 273° |
| 2026-05-04 09:06 | 31.18867 | 121.48530 | 3999 ft | 196 kts | 268° |
| 2026-05-04 09:07 | 31.11832 | 121.44288 | 3099 ft | 197 kts | 168° |
| 2026-05-04 09:08 | 31.10489 | 121.44551 | 3132 ft | 194 kts | 176° |
| 2026-05-04 09:08 | 31.09148 | 121.44679 | 3120 ft | 193 kts | 178° |
| 2026-05-04 09:08 | 31.07824 | 121.44774 | 3105 ft | 189 kts | 179° |
| 2026-05-04 09:08 | 31.06532 | 121.44859 | 3100 ft | 188 kts | 179° |
| 2026-05-04 09:09 | 31.05229 | 121.44938 | 3100 ft | 188 kts | 180° |
| 2026-05-04 09:09 | 31.03919 | 121.45006 | 3103 ft | 189 kts | 180° |
| 2026-05-04 09:09 | 31.02603 | 121.45073 | 3102 ft | 188 kts | 180° |
| 2026-05-04 09:09 | 31.01313 | 121.45145 | 3118 ft | 183 kts | 180° |
| 2026-05-04 09:10 | 31.00052 | 121.45054 | 3112 ft | 182 kts | 193° |
| 2026-05-04 09:10 | 30.98880 | 121.44529 | 3099 ft | 180 kts | 212° |
| 2026-05-04 09:10 | 30.97947 | 121.43587 | 3100 ft | 176 kts | 231° |
| 2026-05-04 09:10 | 30.97351 | 121.42385 | 3109 ft | 169 kts | 249° |
| 2026-05-04 09:11 | 30.97104 | 121.41076 | 3013 ft | 166 kts | 264° |
| 2026-05-04 09:11 | 30.97043 | 121.39732 | 2751 ft | 167 kts | 268° |
| 2026-05-04 09:11 | 30.97022 | 121.38378 | 2557 ft | 165 kts | 269° |
| 2026-05-04 09:11 | 30.97114 | 121.37067 | 2365 ft | 163 kts | 279° |
| 2026-05-04 09:12 | 30.97583 | 121.35856 | 2053 ft | 169 kts | 302° |
| 2026-05-04 09:12 | 30.98510 | 121.35042 | 1920 ft | 168 kts | 334° |
| 2026-05-04 09:14 | 31.06737 | 121.34336 | 1900 ft | 167 kts | 356° |
| 2026-05-04 09:14 | 31.07909 | 121.34273 | 1900 ft | 167 kts | 355° |
| 2026-05-04 09:14 | 31.09010 | 121.34210 | 1830 ft | 151 kts | 354° |
| 2026-05-04 09:14 | 31.10031 | 121.34157 | 1654 ft | 144 kts | 355° |
| 2026-05-04 09:15 | 31.11027 | 121.34103 | 1451 ft | 143 kts | 353° |
| 2026-05-04 09:15 | 31.12018 | 121.34043 | 1258 ft | 143 kts | 354° |
| 2026-05-04 09:15 | 31.13008 | 121.33991 | 1069 ft | 142 kts | 354° |
| 2026-05-04 09:15 | 31.13997 | 121.33942 | 888 ft | 142 kts | 356° |
| 2026-05-04 09:17 | 31.20638 | 121.33715 | 28 ft | 20 kts | 34° |
| 2026-05-04 09:18 | 31.20652 | 121.33729 | 26 ft | 2 kts | 41° |
| 2026-05-04 09:18 | 31.20672 | 121.33752 | 25 ft | 6 kts | 50° |
| 2026-05-04 09:18 | 31.20681 | 121.33804 | 25 ft | 8 kts | 95° |
| 2026-05-04 09:18 | 31.20669 | 121.33878 | 26 ft | 9 kts | 112° |
| 2026-05-04 09:19 | 31.20610 | 121.33908 | 26 ft | 11 kts | 173° |
| 2026-05-04 09:19 | 31.20527 | 121.33918 | 26 ft | 13 kts | 174° |
| 2026-05-04 09:19 | 31.20426 | 121.33930 | 25 ft | 16 kts | 174° |
| 2026-05-04 09:19 | 31.20327 | 121.33941 | 24 ft | 15 kts | 175° |
| 2026-05-04 09:20 | 31.20216 | 121.33953 | 26 ft | 17 kts | 175° |
| 2026-05-04 09:20 | 31.20121 | 121.33973 | 28 ft | 12 kts | 144° |
| 2026-05-04 09:20 | 31.20100 | 121.34050 | 27 ft | 0 kts | 90° |
| 2026-05-04 09:21 | 31.20100 | 121.34080 | 28 ft | 7 kts | 90° |
| 2026-05-04 09:21 | 31.20096 | 121.34144 | 27 ft | 9 kts | 103° |
| 2026-05-04 09:21 | 31.20045 | 121.34187 | 25 ft | 10 kts | 164° |
| 2026-05-04 09:22 | 31.19999 | 121.34193 | 29 ft | 0 kts | 175° |
| 2026-05-04 09:22 | 31.19998 | 121.34193 | 29 ft | 1 kts | 175° |
| 2026-05-04 09:22 | 31.19995 | 121.34194 | 26 ft | 0 kts | 175° |